Terminal Aerodrome Forecast
Issued by NWS Cleveland, OH

Current Version | Previous Version | Text Only | Print | Product List | Glossary On
Versions: 1 2 3 4 5 6 7 8 9 10 11 12 13 14 15 16
000
FTUS41 KCLE 300535
TAFCAK
TAF
KCAK 300535Z 3006/3106 21006KT P6SM BKN250
     FM300900 VRB04KT 4SM BR BKN250
     FM301300 29006KT P6SM SCT030
      TEMPO 3014/3016 BKN030
     FM301600 31008KT P6SM BKN050
     FM302300 34004KT P6SM SCT250=

USA.gov is the U.S. government's official web portal to all federal, state and local government web resources and services.